Time;durP1;ratioP1;P1;durP2;ratioP2;P2;SDS_P1;SDS_P2;PMS_P1;PMS_P2;Temp;Humidity;BMP_temperature;BMP_pressure;BME280_temperature;BME280_humidity;BME280_pressure;Samples;Min_cycle;Max_cycle;Signal;HPM_P1;HPM_P2
2023/12/11 00:01:07;;;;;;;6.87;5.90;;;;;;;9.20;66.89;94586.16;5030083;28;20195;-45
2023/12/11 00:03:34;;;;;;;8.07;6.10;;;;;;;9.20;66.75;94594.59;5029534;28;20195;-44
2023/12/11 00:06:01;;;;;;;8.20;5.97;;;;;;;9.21;67.06;94590.31;5029773;28;20664;-46
2023/12/11 00:08:28;;;;;;;7.73;5.63;;;;;;;9.18;67.14;94582.91;5029746;28;20191;-45
2023/12/11 00:10:54;;;;;;;7.57;5.90;;;;;;;9.20;66.89;94581.03;5045598;28;20221;-44
2023/12/11 00:13:23;;;;;;;6.07;5.47;;;;;;;9.21;67.16;94588.56;5049339;28;20285;-45
2023/12/11 00:15:49;;;;;;;6.57;5.73;;;;;;;9.21;67.32;94592.84;5051414;28;20187;-45
2023/12/11 00:18:16;;;;;;;7.23;5.33;;;;;;;9.08;67.32;94572.69;5058090;28;20229;-45
2023/12/11 00:20:43;;;;;;;6.77;5.60;;;;;;;9.09;67.30;94578.59;5056790;28;20590;-52
2023/12/11 00:23:10;;;;;;;7.23;5.87;;;;;;;9.22;67.25;94599.56;5049001;28;20202;-44
2023/12/11 00:25:37;;;;;;;6.60;5.40;;;;;;;9.07;67.26;94578.72;5049436;28;20246;-46
2023/12/11 00:28:04;;;;;;;7.00;5.60;;;;;;;9.24;67.20;94602.78;5049474;28;20286;-45
2023/12/11 00:30:33;;;;;;;8.40;6.17;;;;;;;9.25;67.28;94604.41;5049487;28;20187;-43
2023/12/11 00:32:59;;;;;;;7.37;5.43;;;;;;;9.26;67.21;94611.13;5049250;28;20575;-45
2023/12/11 00:35:26;;;;;;;6.50;5.50;;;;;;;9.22;67.29;94600.38;5049232;28;20198;-45
2023/12/11 00:37:53;;;;;;;7.77;5.80;;;;;;;9.26;67.34;94606.81;5050836;28;20191;-44
2023/12/11 00:40:20;;;;;;;8.20;5.67;;;;;;;9.27;67.43;94603.31;5053011;28;20583;-45
2023/12/11 00:42:47;;;;;;;6.73;5.90;;;;;;;9.28;67.32;94610.06;5053188;28;20655;-44
2023/12/11 00:45:14;;;;;;;8.37;5.63;;;;;;;9.28;67.57;94607.50;5053258;28;20215;-44
2023/12/11 00:47:42;;;;;;;5.50;4.93;;;;;;;9.25;67.38;94606.97;5053173;28;20187;-46
2023/12/11 00:50:09;;;;;;;7.40;5.30;;;;;;;9.28;67.44;94609.22;5053037;28;20532;-44
2023/12/11 00:52:37;;;;;;;7.60;5.27;;;;;;;9.25;67.26;94612.06;5053225;28;20225;-47
2023/12/11 00:55:05;;;;;;;6.47;5.23;;;;;;;9.28;67.57;94611.78;5053329;28;20191;-45
2023/12/11 00:57:32;;;;;;;6.60;5.30;;;;;;;9.24;67.27;94606.16;5052851;28;20214;-44
2023/12/11 00:59:58;;;;;;;6.50;5.17;;;;;;;9.27;67.53;94610.97;5052881;28;20307;-45
2023/12/11 01:02:25;;;;;;;5.87;5.27;;;;;;;9.28;67.14;94609.22;5043493;28;20203;-44
2023/12/11 01:04:54;;;;;;;8.37;5.60;;;;;;;9.27;67.63;94605.88;5033232;28;20239;-49
2023/12/11 01:07:21;;;;;;;7.87;5.63;;;;;;;9.28;67.67;94604.97;5032701;28;20750;-45
2023/12/11 01:09:48;;;;;;;7.17;5.40;;;;;;;9.28;67.59;94610.06;5039004;28;20187;-47
2023/12/11 01:12:15;;;;;;;6.47;5.83;;;;;;;9.19;67.21;94598.06;5052442;28;20218;-45
2023/12/11 01:14:42;;;;;;;5.87;5.23;;;;;;;9.27;67.61;94613.53;5052647;28;20213;-48
2023/12/11 01:17:09;;;;;;;6.97;5.80;;;;;;;9.28;67.55;94601.56;5052951;28;20179;-48
2023/12/11 01:19:35;;;;;;;7.90;5.43;;;;;;;9.02;67.70;94557.88;5053430;28;20247;-45
2023/12/11 01:22:04;;;;;;;7.23;5.47;;;;;;;9.27;67.74;94595.66;5052755;28;20518;-44
2023/12/11 01:24:31;;;;;;;7.43;5.30;;;;;;;9.27;67.77;94593.13;5052515;28;20725;-43
2023/12/11 01:26:58;;;;;;;7.37;5.70;;;;;;;9.26;67.78;94601.72;5052215;28;20202;-47
2023/12/11 01:29:24;;;;;;;6.23;5.17;;;;;;;9.26;67.87;94601.72;5052664;28;20199;-44
2023/12/11 01:31:51;;;;;;;5.30;4.80;;;;;;;9.23;67.70;94594.31;5052393;28;20648;-44
2023/12/11 01:34:18;;;;;;;6.47;5.30;;;;;;;9.27;67.80;94602.53;5052026;28;20205;-45
2023/12/11 01:36:45;;;;;;;6.97;5.73;;;;;;;9.27;67.84;94597.41;5053022;28;20195;-44
2023/12/11 01:39:13;;;;;;;6.43;4.90;;;;;;;9.29;67.76;94605.75;5056289;28;20218;-45
2023/12/11 01:41:40;;;;;;;6.43;4.80;;;;;;;9.08;67.94;94562.47;5052492;28;20703;-43
2023/12/11 01:44:07;;;;;;;6.87;4.87;;;;;;;9.16;67.69;94572.03;5051686;28;20206;-44
2023/12/11 01:46:34;;;;;;;6.17;4.47;;;;;;;9.33;67.83;94583.34;5052524;28;20211;-44
2023/12/11 01:49:01;;;;;;;4.47;4.07;;;;;;;9.34;67.75;94579.84;5050981;28;20190;-45
2023/12/11 01:51:28;;;;;;;6.07;4.50;;;;;;;9.35;67.99;94586.56;5052130;28;20198;-44
2023/12/11 01:53:55;;;;;;;4.77;4.37;;;;;;;9.37;67.61;94582.09;5051869;28;20198;-43
2023/12/11 01:56:24;;;;;;;4.80;4.33;;;;;;;9.37;67.61;94584.66;5052112;28;20187;-45
2023/12/11 01:58:52;;;;;;;4.33;3.93;;;;;;;9.19;67.71;94552.16;5051566;28;20643;-45
2023/12/11 02:01:23;;;;;;;4.80;4.30;;;;;;;9.38;67.49;94574.34;5051920;28;20198;-45
2023/12/11 02:03:51;;;;;;;4.57;4.17;;;;;;;9.39;67.58;94582.81;5052055;28;20264;-44
2023/12/11 02:06:18;;;;;;;4.87;4.07;;;;;;;9.39;67.60;94578.50;5052689;28;20211;-43
2023/12/11 02:08:46;;;;;;;5.23;4.67;;;;;;;9.36;67.61;94571.09;5052428;28;20191;-45
2023/12/11 02:11:13;;;;;;;4.27;3.87;;;;;;;9.34;67.52;94565.34;5033668;28;20278;-44
2023/12/11 02:13:41;;;;;;;4.47;3.70;;;;;;;9.40;67.42;94569.09;5031798;28;20605;-46
2023/12/11 02:16:13;;;;;;;5.13;4.37;;;;;;;9.39;67.52;94573.41;5031968;28;20218;-44
2023/12/11 02:18:40;;;;;;;4.40;4.00;;;;;;;9.40;67.46;94569.09;5031418;28;20231;-44
2023/12/11 02:21:07;;;;;;;7.47;4.23;;;;;;;9.38;67.51;94574.34;5031348;28;20195;-46
2023/12/11 02:23:41;;;;;;;4.30;3.90;;;;;;;9.37;67.59;94571.91;5031685;28;20191;-44
2023/12/11 02:26:12;;;;;;;4.43;3.97;;;;;;;9.12;67.52;94545.97;5031897;28;20210;-46
2023/12/11 02:28:39;;;;;;;4.37;3.60;;;;;;;9.31;67.60;94583.47;5031882;28;20191;-46
2023/12/11 02:31:06;;;;;;;3.60;3.30;;;;;;;9.11;67.64;94549.47;5031467;28;20307;-45
2023/12/11 02:33:33;;;;;;;4.17;3.77;;;;;;;9.22;67.67;94574.84;5031670;28;20204;-45
2023/12/11 02:36:00;;;;;;;3.73;3.43;;;;;;;8.65;67.78;94499.84;5031506;28;20195;-46
2023/12/11 02:38:27;;;;;;;4.20;3.40;;;;;;;9.19;67.70;94587.06;5031438;28;20187;-47
2023/12/11 02:40:54;;;;;;;3.90;3.60;;;;;;;9.15;67.66;94588.25;5031086;28;20510;-45
2023/12/11 02:43:22;;;;;;;3.77;3.40;;;;;;;9.13;67.72;94587.59;5031103;28;20211;-45
2023/12/11 02:45:49;;;;;;;3.40;3.10;;;;;;;8.87;67.57;94547.28;5031000;28;20227;-45
2023/12/11 02:48:16;;;;;;;3.80;3.40;;;;;;;9.07;67.82;94583.84;5031174;28;20187;-44
2023/12/11 02:50:43;;;;;;;3.50;3.20;;;;;;;9.04;67.68;94584.88;5030937;28;20191;-45
2023/12/11 02:53:10;;;;;;;3.73;3.40;;;;;;;9.02;67.92;94584.22;5030957;28;20196;-44
2023/12/11 02:55:36;;;;;;;3.70;3.00;;;;;;;9.00;67.78;94583.53;5031053;28;20199;-47
2023/12/11 02:58:04;;;;;;;3.53;3.23;;;;;;;8.99;67.64;94581.94;5030740;28;20653;-45
2023/12/11 03:00:32;;;;;;;5.27;3.90;;;;;;;8.99;68.01;94581.13;5030480;28;20183;-44
2023/12/11 03:02:59;;;;;;;3.70;3.40;;;;;;;8.98;67.85;94579.50;5031005;28;20192;-44
2023/12/11 03:05:26;;;;;;;3.70;3.40;;;;;;;8.98;67.81;94582.03;5031514;28;20228;-46
2023/12/11 03:07:53;;;;;;;2.97;2.70;;;;;;;8.99;67.79;94584.47;5030569;28;20188;-45
2023/12/11 03:10:20;;;;;;;3.47;3.00;;;;;;;8.97;67.83;94572.78;5030384;28;20660;-45
2023/12/11 03:12:47;;;;;;;3.87;3.33;;;;;;;8.95;67.70;94565.28;5030666;28;20179;-45
2023/12/11 03:15:14;;;;;;;3.60;3.27;;;;;;;8.99;67.92;94571.72;5030743;28;20187;-44
2023/12/11 03:17:42;;;;;;;4.03;3.23;;;;;;;8.98;68.03;94569.28;5030624;28;20188;-47
2023/12/11 03:20:11;;;;;;;3.43;3.13;;;;;;;8.97;67.88;94563.38;5030325;28;20227;-43
2023/12/11 03:22:38;;;;;;;3.33;3.03;;;;;;;8.96;67.97;94561.78;5030194;28;20358;-46
2023/12/11 03:25:05;;;;;;;3.43;3.13;;;;;;;8.95;68.13;94572.13;5029893;28;20553;-44
2023/12/11 03:27:32;;;;;;;3.00;2.80;;;;;;;8.93;67.79;94568.88;5030338;28;20184;-44
2023/12/11 03:29:59;;;;;;;3.67;3.20;;;;;;;8.89;67.83;94564.97;5030210;28;20188;-43
2023/12/11 03:32:26;;;;;;;3.53;3.23;;;;;;;8.89;67.94;94565.78;5030777;28;20575;-45
2023/12/11 03:34:54;;;;;;;3.77;3.47;;;;;;;8.87;67.86;94560.03;5031464;28;20190;-44
2023/12/11 03:37:21;;;;;;;3.37;2.90;;;;;;;8.80;68.11;94557.16;5030231;28;20899;-43
2023/12/11 03:39:48;;;;;;;3.27;3.03;;;;;;;8.82;68.02;94561.34;5029679;28;20191;-44
2023/12/11 03:42:15;;;;;;;3.47;3.17;;;;;;;8.80;68.11;94564.00;5029921;28;20195;-43
2023/12/11 03:44:42;;;;;;;3.43;3.13;;;;;;;8.79;68.04;94563.22;5029876;28;20192;-45
2023/12/11 03:47:08;;;;;;;3.50;3.20;;;;;;;8.79;68.11;94568.31;5030160;28;20202;-47
2023/12/11 03:49:35;;;;;;;3.80;3.23;;;;;;;8.78;68.11;94558.25;5029811;28;20210;-45
2023/12/11 03:52:04;;;;;;;3.93;3.50;;;;;;;8.78;68.17;94563.34;5029836;28;20188;-45
2023/12/11 03:54:31;;;;;;;3.33;3.03;;;;;;;8.78;68.15;94564.16;5029961;28;20194;-44
2023/12/11 03:56:58;;;;;;;3.77;3.37;;;;;;;8.76;68.03;94560.94;5030035;28;20196;-44
2023/12/11 03:59:24;;;;;;;3.60;3.30;;;;;;;8.79;67.88;94568.31;5029956;28;20572;-45
2023/12/11 04:01:51;;;;;;;4.97;3.33;;;;;;;8.83;67.91;94565.50;5029687;28;20203;-46
2023/12/11 04:04:18;;;;;;;3.93;3.57;;;;;;;8.86;67.96;94568.63;5029520;28;20227;-43
2023/12/11 04:06:45;;;;;;;3.53;3.23;;;;;;;8.88;67.99;94568.47;5029969;28;20211;-47
2023/12/11 04:09:13;;;;;;;3.20;2.90;;;;;;;8.90;67.96;94575.06;5030854;28;20199;-45
2023/12/11 04:11:40;;;;;;;2.90;2.70;;;;;;;8.93;67.65;94563.78;5048866;28;20276;-45
2023/12/11 04:14:07;;;;;;;3.53;3.23;;;;;;;8.95;67.93;94562.72;5049487;28;20644;-45
2023/12/11 04:16:34;;;;;;;3.33;3.03;;;;;;;8.94;67.79;94562.88;5049935;28;20187;-45
2023/12/11 04:19:00;;;;;;;3.40;3.10;;;;;;;9.00;67.87;94572.53;5049559;28;20699;-46
2023/12/11 04:21:27;;;;;;;3.30;3.00;;;;;;;9.02;67.79;94570.66;5051193;28;20200;-45
2023/12/11 04:23:55;;;;;;;3.50;3.20;;;;;;;9.04;67.87;94568.78;5054285;28;20202;-46
2023/12/11 04:26:23;;;;;;;3.47;3.17;;;;;;;9.04;67.91;94568.78;5057727;28;20218;-47
2023/12/11 04:28:50;;;;;;;3.83;3.37;;;;;;;9.09;67.55;94573.50;5057591;28;20225;-47
2023/12/11 04:31:17;;;;;;;3.27;3.07;;;;;;;9.11;67.70;94561.41;5049333;28;20183;-45
2023/12/11 04:33:43;;;;;;;3.40;3.10;;;;;;;9.13;67.67;94568.00;5049379;28;20187;-44
2023/12/11 04:36:11;;;;;;;3.77;3.37;;;;;;;9.16;67.70;94569.50;5049385;28;20187;-46
2023/12/11 04:38:38;;;;;;;4.00;3.60;;;;;;;9.14;67.64;94564.50;5051015;28;20183;-47
2023/12/11 04:41:05;;;;;;;4.43;3.80;;;;;;;9.17;67.58;94571.09;5046028;28;20260;-45
2023/12/11 04:43:34;;;;;;;3.40;3.10;;;;;;;9.19;67.53;94569.19;5029826;28;20518;-44
2023/12/11 04:46:01;;;;;;;4.00;3.63;;;;;;;9.23;67.70;94584.09;5029347;28;20223;-46
2023/12/11 04:48:28;;;;;;;4.20;3.80;;;;;;;9.24;67.32;94572.16;5028980;28;20195;-44
2023/12/11 04:50:55;;;;;;;4.17;3.77;;;;;;;9.25;67.41;94579.69;5029096;28;20195;-45
2023/12/11 04:53:22;;;;;;;4.57;4.17;;;;;;;9.27;67.52;94589.75;5029015;28;20291;-45
2023/12/11 04:55:49;;;;;;;4.70;3.60;;;;;;;9.25;67.45;94574.59;5029760;28;20191;-43
2023/12/11 04:58:16;;;;;;;4.73;3.70;;;;;;;9.29;67.56;94580.25;5029259;28;20191;-47
2023/12/11 05:00:44;;;;;;;3.97;3.60;;;;;;;9.29;67.49;94575.94;5029096;28;20187;-46
2023/12/11 05:03:11;;;;;;;4.23;3.40;;;;;;;9.03;67.43;94536.56;5028990;28;20188;-45
2023/12/11 05:05:38;;;;;;;4.27;3.57;;;;;;;9.32;67.27;94569.75;5029323;28;20207;-46
2023/12/11 05:08:05;;;;;;;3.50;3.20;;;;;;;9.33;67.40;94570.59;5029418;28;20195;-44
2023/12/11 05:10:34;;;;;;;4.77;4.00;;;;;;;9.35;67.39;94576.34;5041720;28;20643;-44
2023/12/11 05:13:00;;;;;;;3.73;3.43;;;;;;;9.34;67.23;94583.19;5049844;28;20194;-45
2023/12/11 05:15:27;;;;;;;4.93;3.83;;;;;;;9.35;67.47;94568.69;5049613;28;20195;-45
2023/12/11 05:17:56;;;;;;;3.87;3.47;;;;;;;9.28;67.24;94566.69;5048892;28;20568;-44
2023/12/11 05:20:22;;;;;;;4.27;3.33;;;;;;;9.31;67.63;94578.34;5049153;28;20253;-44
2023/12/11 05:22:49;;;;;;;4.23;3.77;;;;;;;9.36;67.63;94583.84;5048988;28;20214;-45
2023/12/11 05:25:16;;;;;;;4.33;3.93;;;;;;;9.37;67.43;94582.09;5051973;28;20183;-44
2023/12/11 05:27:43;;;;;;;5.20;3.77;;;;;;;9.37;67.53;94595.72;5052445;28;20191;-46
2023/12/11 05:30:10;;;;;;;5.90;4.00;;;;;;;9.37;67.41;94592.31;5052455;28;20187;-46
2023/12/11 05:32:38;;;;;;;5.07;4.00;;;;;;;9.35;67.58;94584.00;5052714;28;20214;-44
2023/12/11 05:35:08;;;;;;;5.23;4.20;;;;;;;9.35;67.48;94586.56;5052439;28;20195;-45
2023/12/11 05:37:34;;;;;;;4.80;4.30;;;;;;;9.38;67.45;94606.72;5052387;28;20191;-45
2023/12/11 05:40:02;;;;;;;5.40;4.20;;;;;;;9.39;67.40;94610.88;5053073;28;20191;-51
2023/12/11 05:42:29;;;;;;;4.40;4.00;;;;;;;9.32;67.44;94592.72;5052516;28;20252;-46
2023/12/11 05:44:55;;;;;;;4.67;4.03;;;;;;;9.40;67.50;94604.81;5052074;28;20193;-44
2023/12/11 05:47:22;;;;;;;5.60;3.93;;;;;;;9.37;67.42;94597.41;5052288;28;20238;-45
2023/12/11 05:49:49;;;;;;;6.63;4.40;;;;;;;9.38;67.46;94597.31;5051908;28;20668;-45
2023/12/11 05:52:17;;;;;;;3.83;3.53;;;;;;;9.42;67.45;94608.88;5052571;28;20617;-45
2023/12/11 05:54:44;;;;;;;4.90;3.77;;;;;;;9.42;67.41;94610.63;5052434;28;20195;-44
2023/12/11 05:57:11;;;;;;;7.83;3.97;;;;;;;9.42;67.56;94608.06;5052117;28;20191;-44
2023/12/11 05:59:38;;;;;;;4.40;4.00;;;;;;;9.45;67.31;94621.34;5050046;28;20197;-46
2023/12/11 06:02:05;;;;;;;3.87;3.10;;;;;;;9.72;95.22;94613.06;5051609;28;20197;-44
2023/12/11 06:04:32;;;;;;;4.13;3.57;;;;;;;10.47;100.00;94610.69;5051592;28;20183;-46
2023/12/11 06:06:59;;;;;;;9.90;3.50;;;;;;;11.12;100.00;94619.19;5042415;28;20218;-45
2023/12/11 06:09:27;;;;;;;5.43;3.13;;;;;;;11.46;100.00;94611.69;5032538;28;20625;-47
2023/12/11 06:11:54;;;;;;;4.80;3.43;;;;;;;11.58;99.83;94604.63;5031772;28;20194;-45
2023/12/11 06:14:21;;;;;;;4.00;3.57;;;;;;;11.61;97.43;94617.13;5032155;28;20210;-47
2023/12/11 06:16:48;;;;;;;5.10;3.30;;;;;;;11.54;94.80;94611.78;5031802;28;20571;-46
2023/12/11 06:19:15;;;;;;;4.97;3.60;;;;;;;11.48;92.45;94614.91;5031428;28;20276;-48
2023/12/11 06:21:43;;;;;;;5.63;3.77;;;;;;;11.39;90.15;94614.97;5030447;28;20651;-46
2023/12/11 06:24:10;;;;;;;9.70;3.90;;;;;;;11.39;88.35;94625.22;5017534;28;20683;-46
2023/12/11 06:26:42;;;;;;;5.13;3.80;;;;;;;11.26;86.77;94613.56;5024889;28;20635;-46
2023/12/11 06:29:09;;;;;;;3.80;3.40;;;;;;;11.16;85.50;94610.25;5038284;28;20211;-45
2023/12/11 06:31:36;;;;;;;5.90;4.53;;;;;;;11.17;84.22;94626.44;5031462;28;20190;-47
2023/12/11 06:34:03;;;;;;;3.87;3.40;;;;;;;11.10;83.36;94615.16;5051631;28;20640;-45
2023/12/11 06:36:30;;;;;;;3.97;3.60;;;;;;;11.07;82.29;94618.81;5051089;28;20648;-45
2023/12/11 06:38:57;;;;;;;5.27;4.07;;;;;;;10.84;81.29;94584.28;5037133;28;20302;-48
2023/12/11 06:41:24;;;;;;;5.67;4.70;;;;;;;11.02;80.59;94624.34;5035547;28;20206;-49
2023/12/11 06:43:53;;;;;;;6.40;3.97;;;;;;;10.96;79.86;94616.41;5030238;28;20210;-48
2023/12/11 06:46:20;;;;;;;6.87;3.87;;;;;;;11.03;79.30;94625.16;5031582;28;20215;-47
2023/12/11 06:48:47;;;;;;;5.87;4.40;;;;;;;10.48;78.64;94527.94;5030330;28;20199;-47
2023/12/11 06:51:15;;;;;;;5.53;4.57;;;;;;;11.13;77.81;94623.34;5030280;28;20684;-46
2023/12/11 06:53:42;;;;;;;4.63;3.90;;;;;;;11.42;76.81;94630.88;5030276;28;20702;-48
2023/12/11 06:56:10;;;;;;;6.47;4.40;;;;;;;11.61;76.05;94606.06;5035841;28;20293;-49
2023/12/11 06:58:37;;;;;;;4.87;4.00;;;;;;;11.90;75.94;94624.63;5029942;28;20525;-47
2023/12/11 07:01:10;;;;;;;5.20;4.17;;;;;;;12.00;75.31;94625.38;5030616;28;20571;-47
2023/12/11 07:03:37;;;;;;;5.80;4.13;;;;;;;12.17;74.72;94641.66;5029890;28;20299;-49
2023/12/11 07:06:04;;;;;;;5.47;4.20;;;;;;;12.26;74.00;94643.34;5029827;28;20684;-49
2023/12/11 07:08:31;;;;;;;5.63;4.70;;;;;;;12.37;73.58;94651.75;5030266;28;20219;-46
2023/12/11 07:10:58;;;;;;;5.00;4.27;;;;;;;12.43;72.83;94651.13;5031741;28;20190;-46
2023/12/11 07:13:25;;;;;;;7.43;4.10;;;;;;;12.50;72.60;94657.28;5029961;28;20211;-48
2023/12/11 07:15:52;;;;;;;6.10;4.40;;;;;;;12.66;71.81;94664.28;5032487;28;20266;-47
2023/12/11 07:18:21;;;;;;;5.30;4.20;;;;;;;12.84;71.07;94669.38;5030251;28;20323;-48
2023/12/11 07:20:49;;;;;;;6.33;4.20;;;;;;;12.92;70.75;94670.22;5029762;28;20661;-47
2023/12/11 07:23:15;;;;;;;4.80;3.87;;;;;;;12.96;70.47;94665.59;5037039;28;20195;-45
2023/12/11 07:25:42;;;;;;;4.60;4.20;;;;;;;12.98;70.17;94672.16;5030285;28;20188;-46
2023/12/11 07:28:09;;;;;;;5.63;3.90;;;;;;;13.01;69.98;94678.75;5031492;28;20233;-45
2023/12/11 07:30:36;;;;;;;6.87;4.20;;;;;;;13.02;69.85;94677.78;5032185;28;20191;-48
2023/12/11 07:33:03;;;;;;;5.63;3.83;;;;;;;13.03;69.39;94679.41;5036756;28;20194;-49
2023/12/11 07:35:32;;;;;;;5.47;3.77;;;;;;;13.04;69.00;94679.28;5031190;28;20199;-47
2023/12/11 07:37:59;;;;;;;5.00;4.30;;;;;;;13.01;68.84;94671.06;5029535;28;20293;-49
2023/12/11 07:40:25;;;;;;;5.60;4.10;;;;;;;13.02;68.56;94675.22;5031480;28;20198;-48
2023/12/11 07:42:52;;;;;;;8.17;4.07;;;;;;;12.95;68.43;94669.09;5030816;28;20191;-47
2023/12/11 07:45:19;;;;;;;3.97;3.10;;;;;;;13.05;68.05;94691.13;5029428;28;20198;-47
2023/12/11 07:47:46;;;;;;;5.40;3.83;;;;;;;13.07;67.75;94686.66;5029363;28;20990;-46
2023/12/11 07:50:13;;;;;;;4.50;3.83;;;;;;;13.06;67.67;94684.25;5031805;28;20180;-44
2023/12/11 07:52:42;;;;;;;4.77;3.60;;;;;;;13.11;67.24;94691.47;5030271;28;20199;-48
2023/12/11 07:55:09;;;;;;;4.07;3.67;;;;;;;13.12;66.85;94685.38;5031452;28;20198;-46
2023/12/11 07:57:36;;;;;;;5.20;3.50;;;;;;;13.13;66.81;94690.38;5029198;28;20200;-47
2023/12/11 08:00:05;;;;;;;3.50;3.23;;;;;;;13.13;66.52;94684.44;5031838;28;20222;-51
2023/12/11 08:02:32;;;;;;;3.77;3.47;;;;;;;13.04;66.57;94669.00;5031517;28;20259;-46
2023/12/11 08:04:58;;;;;;;4.23;3.73;;;;;;;13.18;66.05;94692.50;5036430;28;20190;-45
2023/12/11 08:07:25;;;;;;;6.73;4.00;;;;;;;13.20;65.92;94683.66;5039188;28;20203;-44
2023/12/11 08:09:53;;;;;;;3.30;3.00;;;;;;;13.21;65.72;94685.28;5033047;28;20275;-46
2023/12/11 08:12:20;;;;;;;4.00;3.60;;;;;;;13.28;65.53;94685.50;5032001;28;20215;-45
2023/12/11 08:14:47;;;;;;;5.37;3.47;;;;;;;13.33;65.06;94685.03;5031351;28;20191;-45
2023/12/11 08:17:14;;;;;;;4.07;3.40;;;;;;;13.40;64.75;94686.03;5029447;28;20195;-44
2023/12/11 08:19:41;;;;;;;5.17;3.43;;;;;;;13.64;64.15;94698.13;5029123;28;20227;-45
2023/12/11 08:22:08;;;;;;;5.30;3.03;;;;;;;14.00;63.09;94693.56;5029955;28;20192;-47
2023/12/11 08:24:35;;;;;;;3.73;3.43;;;;;;;14.30;61.96;94677.53;5030242;28;20203;-45
2023/12/11 08:27:07;;;;;;;3.77;3.00;;;;;;;14.85;61.20;94693.25;5030582;28;20242;-48
2023/12/11 08:29:34;;;;;;;3.57;3.20;;;;;;;15.30;60.06;94688.31;5029691;28;20277;-49
2023/12/11 08:32:02;;;;;;;3.87;3.43;;;;;;;15.67;59.33;94686.91;5030758;28;20206;-51
2023/12/11 08:34:29;;;;;;;4.27;3.10;;;;;;;15.90;58.77;94688.72;5042966;28;20187;-45
2023/12/11 08:36:56;;;;;;;4.87;3.27;;;;;;;15.97;58.52;94687.84;5041750;28;20285;-46
2023/12/11 08:39:24;;;;;;;3.53;3.07;;;;;;;15.97;58.41;94680.13;5029446;28;20191;-45
2023/12/11 08:41:51;;;;;;;5.43;3.23;;;;;;;16.01;58.34;94686.53;5031183;28;20763;-46
2023/12/11 08:44:19;;;;;;;3.83;2.93;;;;;;;16.08;57.94;94675.56;5029306;28;20197;-45
2023/12/11 08:46:46;;;;;;;3.40;3.10;;;;;;;15.65;57.99;94595.25;5028341;28;20298;-45
2023/12/11 08:49:13;;;;;;;3.07;2.77;;;;;;;16.21;57.67;94684.31;5029491;28;20188;-46
2023/12/11 08:51:41;;;;;;;3.00;2.70;;;;;;;16.28;57.72;94672.34;5028576;28;20192;-45
2023/12/11 08:54:08;;;;;;;3.33;3.03;;;;;;;16.32;57.86;94659.91;5029448;28;20245;-45
2023/12/11 08:56:35;;;;;;;3.30;3.00;;;;;;;16.33;57.63;94663.28;5029761;28;20191;-48
2023/12/11 08:59:02;;;;;;;5.67;3.40;;;;;;;16.28;57.73;94651.69;5030880;28;20657;-46
2023/12/11 09:01:34;;;;;;;3.47;2.93;;;;;;;16.24;57.75;94644.47;5032578;28;20192;-45
2023/12/11 09:04:04;;;;;;;3.30;3.00;;;;;;;16.13;57.93;94643.09;5032538;28;20200;-46
2023/12/11 09:06:31;;;;;;;8.63;3.10;;;;;;;16.02;57.97;94644.31;5036391;28;20188;-47
2023/12/11 09:08:58;;;;;;;4.93;3.00;;;;;;;15.91;57.94;94647.28;5034636;28;20191;-46
2023/12/11 09:11:26;;;;;;;4.13;2.83;;;;;;;15.79;57.83;94641.72;5032679;28;20195;-47
2023/12/11 09:13:53;;;;;;;3.40;2.90;;;;;;;15.66;57.81;94622.63;5032593;28;20639;-46
2023/12/11 09:16:20;;;;;;;3.90;2.77;;;;;;;15.56;57.73;94615.88;5029509;28;20900;-45
2023/12/11 09:18:48;;;;;;;2.80;2.43;;;;;;;15.45;57.66;94608.53;5032514;28;20231;-45
2023/12/11 09:21:15;;;;;;;3.50;2.83;;;;;;;15.36;57.65;94608.75;5035729;28;20672;-46
2023/12/11 09:23:42;;;;;;;3.43;3.07;;;;;;;15.25;57.75;94615.09;5029176;28;20191;-45
2023/12/11 09:26:09;;;;;;;3.80;2.80;;;;;;;15.15;57.80;94610.13;5032500;28;20203;-45
2023/12/11 09:28:37;;;;;;;5.43;2.97;;;;;;;15.06;57.65;94616.28;5031814;28;20223;-47
2023/12/11 09:31:04;;;;;;;4.30;2.90;;;;;;;14.97;57.44;94610.34;5031684;28;20661;-46
2023/12/11 09:33:32;;;;;;;4.60;3.00;;;;;;;14.85;57.70;94603.16;5029323;28;20205;-46
2023/12/11 09:36:00;;;;;;;3.33;3.00;;;;;;;14.82;57.67;94604.31;5028686;28;20192;-45
2023/12/11 09:38:27;;;;;;;3.43;2.90;;;;;;;14.75;57.68;94599.00;5029516;28;20183;-46
2023/12/11 09:40:55;;;;;;;3.30;2.90;;;;;;;14.70;57.79;94595.31;5030624;28;20199;-46
2023/12/11 09:43:22;;;;;;;3.10;2.80;;;;;;;14.65;57.78;94602.75;5031417;28;20218;-45
2023/12/11 09:45:52;;;;;;;4.03;3.27;;;;;;;14.59;57.67;94601.59;5037595;28;20188;-45
2023/12/11 09:48:19;;;;;;;3.20;2.90;;;;;;;14.45;57.64;94579.09;5031791;28;20304;-52
2023/12/11 09:50:46;;;;;;;3.13;2.80;;;;;;;14.46;57.63;94589.22;5031976;28;20195;-46
2023/12/11 09:53:14;;;;;;;4.43;3.23;;;;;;;14.44;57.49;94588.59;5031563;28;20196;-47
2023/12/11 09:55:41;;;;;;;3.20;2.63;;;;;;;14.38;57.52;94575.56;5034146;28;20195;-46
2023/12/11 09:58:09;;;;;;;3.13;2.80;;;;;;;14.38;57.47;94583.28;5031250;28;20565;-45
2023/12/11 10:00:37;;;;;;;3.33;2.87;;;;;;;14.35;57.51;94581.06;5031143;28;20712;-47
2023/12/11 10:03:07;;;;;;;3.17;2.87;;;;;;;14.33;57.40;94578.63;5031420;28;20195;-46
2023/12/11 10:05:35;;;;;;;4.50;2.80;;;;;;;14.31;57.45;94565.13;5031127;28;20645;-45
2023/12/11 10:08:03;;;;;;;2.87;2.63;;;;;;;14.28;57.36;94568.84;5031274;28;20247;-46
2023/12/11 10:10:33;;;;;;;3.40;3.10;;;;;;;14.27;57.38;94563.84;5029927;28;20720;-46
2023/12/11 10:13:01;;;;;;;3.40;2.63;;;;;;;14.27;57.51;94569.00;5030191;28;20187;-46
2023/12/11 10:15:29;;;;;;;4.57;2.90;;;;;;;14.26;57.44;94568.22;5030871;28;20372;-46
2023/12/11 10:18:08;;;;;;;2.73;2.53;;;;;;;14.27;57.18;94574.94;5030365;28;20228;-45
2023/12/11 10:20:35;;;;;;;4.87;2.70;;;;;;;14.27;57.43;94569.81;5030771;28;20283;-45
2023/12/11 10:23:13;;;;;;;3.20;2.90;;;;;;;14.28;57.23;94563.69;5030425;28;20214;-45
2023/12/11 10:25:42;;;;;;;4.60;3.67;;;;;;;14.29;57.34;94556.75;5030731;28;20191;-46
2023/12/11 10:28:11;;;;;;;3.17;2.93;;;;;;;14.24;57.14;94546.97;5030543;28;20651;-46
2023/12/11 10:30:56;;;;;;;8.23;3.50;;;;;;;14.33;57.23;94550.31;5031084;28;20198;-46
2023/12/11 10:33:25;;;;;;;5.27;3.10;;;;;;;14.29;57.23;94537.03;5031402;28;20664;-46
2023/12/11 10:35:52;;;;;;;4.70;3.43;;;;;;;14.37;57.11;94548.25;5030557;28;20202;-45
2023/12/11 10:38:23;;;;;;;4.53;3.00;;;;;;;14.35;56.96;94539.91;5031689;28;20192;-45
2023/12/11 10:40:52;;;;;;;4.23;3.13;;;;;;;14.41;56.93;94554.66;5030799;28;20599;-46
2023/12/11 10:43:19;;;;;;;6.13;3.67;;;;;;;14.41;57.03;94550.31;5030224;28;20209;-46
2023/12/11 10:45:46;;;;;;;4.37;3.30;;;;;;;14.43;56.99;94561.25;5030383;28;20217;-45
2023/12/11 10:48:13;;;;;;;2.73;2.43;;;;;;;14.46;56.79;94549.81;5029956;28;20322;-46
2023/12/11 10:50:42;;;;;;;6.47;3.33;;;;;;;14.47;56.58;94539.38;5030196;28;20204;-44
2023/12/11 10:53:09;;;;;;;4.97;3.27;;;;;;;14.49;56.80;94540.03;5030373;28;20692;-46
2023/12/11 10:55:37;;;;;;;4.57;3.13;;;;;;;14.53;56.81;94538.75;5030580;28;20278;-52
2023/12/11 10:58:07;;;;;;;5.87;3.73;;;;;;;14.56;56.62;94540.19;5030236;28;20198;-45
2023/12/11 11:00:35;;;;;;;4.23;2.90;;;;;;;14.55;56.77;94531.69;5030234;28;20786;-49
2023/12/11 11:03:06;;;;;;;3.97;3.20;;;;;;;14.59;56.56;94536.47;5029777;28;20207;-47
2023/12/11 11:05:33;;;;;;;3.50;3.20;;;;;;;14.59;56.49;94521.81;5030481;28;20198;-47
2023/12/11 11:08:10;;;;;;;3.73;3.33;;;;;;;14.59;56.50;94514.09;5029554;28;20215;-46
2023/12/11 11:10:43;;;;;;;5.60;4.03;;;;;;;14.47;56.49;94490.50;5029913;28;20199;-45
2023/12/11 11:13:19;;;;;;;3.90;3.47;;;;;;;14.61;56.57;94514.75;5028814;28;20299;-47
2023/12/11 11:15:52;;;;;;;3.67;3.20;;;;;;;14.62;56.41;94502.69;5029961;28;20199;-48
2023/12/11 11:18:19;;;;;;;7.43;3.73;;;;;;;14.60;56.52;94496.91;5029834;28;20219;-49
2023/12/11 11:21:11;;;;;;;7.07;3.70;;;;;;;14.61;56.40;94498.53;5030151;28;20188;-46
2023/12/11 11:23:43;;;;;;;6.30;3.87;;;;;;;14.62;56.65;94506.06;5030122;28;20204;-46
2023/12/11 11:26:34;;;;;;;7.23;4.20;;;;;;;14.61;56.39;94508.81;5029808;28;20211;-46
2023/12/11 11:29:01;;;;;;;4.73;3.63;;;;;;;14.61;56.55;94501.88;5029756;28;20360;-48
2023/12/11 11:31:48;;;;;;;6.57;4.00;;;;;;;14.61;56.58;94493.38;5030032;28;20275;-48
2023/12/11 11:34:14;;;;;;;5.50;3.60;;;;;;;14.60;56.51;94491.78;5029797;28;20203;-46
2023/12/11 11:36:47;;;;;;;7.60;4.00;;;;;;;14.61;56.52;94501.09;5029994;28;20193;-48
2023/12/11 11:39:14;;;;;;;6.23;4.20;;;;;;;14.58;56.50;94484.19;5029870;28;20210;-47